createdAt,value
2022-10-01T00:00:04.269Z,100340.19
2022-10-01T00:03:12.821Z,100333.50
2022-10-01T00:06:19.430Z,100336.66
2022-10-01T00:09:22.322Z,100343.34
2022-10-01T00:12:25.424Z,100331.91
2022-10-01T00:15:28.303Z,100332.31
2022-10-01T00:18:31.421Z,100313.81
2022-10-01T00:21:34.693Z,100316.56
2022-10-01T00:24:38.021Z,100319.31
2022-10-01T00:27:45.238Z,100321.69
2022-10-01T00:30:48.569Z,100321.69
2022-10-01T00:33:56.186Z,100316.16
2022-10-01T00:37:04.824Z,100318.94
2022-10-01T00:40:08.442Z,100315.75
2022-10-01T00:43:22.768Z,100326.38
2022-10-01T00:46:47.914Z,100325.97
2022-10-01T00:49:59.475Z,100322.44
2022-10-01T00:53:08.454Z,100314.97
2022-10-01T00:56:11.708Z,100316.16
2022-10-01T00:59:16.538Z,100311.44
2022-10-01T01:02:19.810Z,100307.47
2022-10-01T01:05:23.270Z,100301.16
2022-10-01T01:08:26.485Z,100290.56
2022-10-01T01:11:40.187Z,100286.22
2022-10-01T01:15:08.482Z,100287.41
2022-10-01T01:18:27.741Z,100286.25
2022-10-01T01:21:55.362Z,100281.88
2022-10-01T01:25:05.030Z,100270.87
2022-10-01T01:28:14.301Z,100290.91
2022-10-01T01:31:25.379Z,100285.41
2022-10-01T01:34:32.631Z,100287.75
2022-10-01T01:37:40.331Z,100280.66
2022-10-01T01:40:47.161Z,100283.78
2022-10-01T01:43:54.056Z,100279.81
2022-10-01T01:46:58.899Z,100280.63
2022-10-01T01:50:03.468Z,100284.56
2022-10-01T01:53:06.980Z,100285.38
2022-10-01T01:56:09.934Z,100275.91
2022-10-01T01:59:14.129Z,100282.59
2022-10-01T02:02:25.837Z,100289.62
2022-10-01T02:05:43.344Z,100295.50
2022-10-01T02:08:46.685Z,100293.91
2022-10-01T02:12:07.664Z,100303.34
2022-10-01T02:15:36.201Z,100299.00
2022-10-01T02:19:00.591Z,100303.41
2022-10-01T02:22:15.978Z,100306.59
2022-10-01T02:25:26.338Z,100293.63
2022-10-01T02:28:32.994Z,100302.25
2022-10-01T02:31:36.629Z,100298.69
2022-10-01T02:34:42.026Z,100288.88
2022-10-01T02:37:49.285Z,100276.69
2022-10-01T02:40:56.717Z,100280.25
2022-10-01T02:44:06.710Z,100266.12
2022-10-01T02:47:37.831Z,100282.25
2022-10-01T02:50:51.689Z,100292.47
2022-10-01T02:54:12.162Z,100304.28
2022-10-01T02:57:23.126Z,100316.06
2022-10-01T03:00:27.177Z,100323.91
2022-10-01T03:03:31.734Z,100327.44
2022-10-01T03:06:36.218Z,100329.41
2022-10-01T03:09:39.488Z,100327.84
2022-10-01T03:12:44.251Z,100334.16
2022-10-01T03:15:50.486Z,100325.47
2022-10-01T03:18:53.726Z,100332.56
2022-10-01T03:21:56.847Z,100333.72
2022-10-01T03:24:59.989Z,100339.97
2022-10-01T03:28:03.144Z,100343.09
2022-10-01T03:31:10.905Z,100347.03
2022-10-01T03:34:14.310Z,100338.81
2022-10-01T03:37:17.093Z,100323.03
2022-10-01T03:40:20.236Z,100331.72
2022-10-01T03:43:23.194Z,100333.31
2022-10-01T03:46:26.497Z,100312.47
2022-10-01T03:49:29.180Z,100320.72
2022-10-01T03:52:32.047Z,100318.37
2022-10-01T03:55:34.640Z,100322.28
2022-10-01T03:58:37.587Z,100332.47
2022-10-01T04:01:40.189Z,100324.19
2022-10-01T04:04:43.042Z,100329.31
2022-10-01T04:07:46.288Z,100321.78
2022-10-01T04:10:49.485Z,100329.31
2022-10-01T04:13:52.151Z,100332.88
2022-10-01T04:16:54.980Z,100331.31
2022-10-01T04:19:57.805Z,100327.75
2022-10-01T04:23:01.263Z,100317.12
2022-10-01T04:26:04.094Z,100318.31
2022-10-01T04:29:07.178Z,100308.50
2022-10-01T04:32:09.723Z,100311.22
2022-10-01T04:35:12.835Z,100307.31
2022-10-01T04:38:17.147Z,100298.28
2022-10-01T04:41:20.773Z,100301.44
2022-10-01T04:44:23.423Z,100312.84
2022-10-01T04:47:26.284Z,100301.44
2022-10-01T04:50:29.468Z,100308.50
2022-10-01T04:53:32.390Z,100309.69
2022-10-01T04:56:34.960Z,100310.91
2022-10-01T04:59:37.862Z,100319.53
2022-10-01T05:02:40.759Z,100315.25
2022-10-01T05:05:43.595Z,100305.41
2022-10-01T05:08:46.128Z,100323.94
2022-10-01T05:11:52.114Z,100319.22
2022-10-01T05:14:55.823Z,100320.00
2022-10-01T05:17:58.771Z,100320.81
2022-10-01T05:21:05.916Z,100327.12
2022-10-01T05:24:08.997Z,100321.63
2022-10-01T05:27:14.428Z,100314.53
2022-10-01T05:30:24.210Z,100331.06
2022-10-01T05:33:28.955Z,100316.53
2022-10-01T05:36:31.740Z,100319.72
2022-10-01T05:39:39.720Z,100320.09
2022-10-01T05:42:46.929Z,100324.41
2022-10-01T05:45:51.262Z,100330.34
2022-10-01T05:48:54.307Z,100335.84
2022-10-01T05:51:56.883Z,100328.78
2022-10-01T05:54:59.843Z,100349.22
2022-10-01T05:58:05.078Z,100350.44
2022-10-01T06:01:08.027Z,100342.56
2022-10-01T06:04:11.001Z,100337.44
2022-10-01T06:07:14.045Z,100354.75
2022-10-01T06:10:17.675Z,100352.78
2022-10-01T06:13:20.254Z,100366.94
2022-10-01T06:16:23.408Z,100358.63
2022-10-01T06:19:25.988Z,100356.66
2022-10-01T06:22:28.848Z,100357.78
2022-10-01T06:25:31.807Z,100362.47
2022-10-01T06:28:34.746Z,100367.16
2022-10-01T06:31:37.967Z,100356.88
2022-10-01T06:34:41.090Z,100356.44
2022-10-01T06:37:43.646Z,100351.22
2022-10-01T06:40:54.624Z,100340.12
2022-10-01T06:43:57.144Z,100336.88
2022-10-01T06:46:59.983Z,100336.81
2022-10-01T06:50:02.531Z,100338.28
2022-10-01T06:53:05.854Z,100339.03
2022-10-01T06:56:08.664Z,100337.41
2022-10-01T06:59:12.111Z,100336.13
2022-10-01T07:02:28.105Z,100352.25
2022-10-01T07:05:31.434Z,100357.75
2022-10-01T07:08:33.995Z,100362.87
2022-10-01T07:11:41.390Z,100358.03
2022-10-01T07:14:44.028Z,100368.94
2022-10-01T07:17:51.746Z,100387.44
2022-10-01T07:20:57.071Z,100372.41
2022-10-01T07:23:59.875Z,100386.81
2022-10-01T07:27:07.087Z,100392.69
2022-10-01T07:30:10.802Z,100394.22
2022-10-01T07:33:22.836Z,100388.19
2022-10-01T07:36:25.966Z,100394.38
2022-10-01T07:39:28.803Z,100395.31
2022-10-01T07:42:31.677Z,100404.66
2022-10-01T07:45:34.326Z,100408.88
2022-10-01T07:48:37.214Z,100415.72
2022-10-01T07:51:39.723Z,100408.41
2022-10-01T07:54:43.182Z,100414.94
2022-10-01T07:57:53.166Z,100416.00
2022-10-01T08:00:58.585Z,100400.81
2022-10-01T08:04:21.780Z,100415.81
2022-10-01T08:07:24.334Z,100407.03
2022-10-01T08:10:27.826Z,100414.00
2022-10-01T08:13:30.387Z,100414.22
2022-10-01T08:16:34.534Z,100408.72
2022-10-01T08:19:37.092Z,100410.34
2022-10-01T08:22:42.409Z,100412.97
2022-10-01T08:25:45.858Z,100405.66
2022-10-01T08:28:48.775Z,100400.41
2022-10-01T08:31:51.480Z,100397.19
2022-10-01T08:34:57.576Z,100388.69
2022-10-01T08:38:06.785Z,100374.03
2022-10-01T08:41:26.097Z,100370.47
2022-10-01T08:44:37.488Z,100357.56
2022-10-01T08:47:53.249Z,100352.28
2022-10-01T08:51:03.845Z,100354.72
2022-10-01T08:54:21.053Z,100348.78
2022-10-01T08:57:43.623Z,100352.75
2022-10-01T09:00:48.305Z,100362.31
2022-10-01T09:03:51.165Z,100368.03
2022-10-01T09:07:09.257Z,100357.97
2022-10-01T09:10:24.922Z,100365.78
2022-10-01T09:13:52.531Z,100359.19
2022-10-01T09:17:04.422Z,100368.06
2022-10-01T09:20:27.583Z,100350.16
2022-10-01T09:23:36.930Z,100352.81
2022-10-01T09:26:46.089Z,100335.87
2022-10-01T09:29:56.488Z,100343.31
2022-10-01T09:33:16.202Z,100341.91
2022-10-01T09:36:26.448Z,100337.62
2022-10-01T09:39:55.787Z,100327.78
2022-10-01T09:42:58.497Z,100320.81
2022-10-01T09:46:04.580Z,100312.19
2022-10-01T09:49:16.859Z,100310.22
2022-10-01T09:52:37.063Z,100313.25
2022-10-01T09:55:42.782Z,100307.34
2022-10-01T09:58:52.905Z,100312.38
2022-10-01T10:01:59.201Z,100302.75
2022-10-01T10:05:07.091Z,100295.63
2022-10-01T10:08:14.938Z,100287.38
2022-10-01T10:11:23.963Z,100277.56
2022-10-01T10:14:31.921Z,100289.81
2022-10-01T10:17:38.166Z,100290.38
2022-10-01T10:20:43.571Z,100289.13
2022-10-01T10:23:58.127Z,100287.00
2022-10-01T10:27:03.258Z,100279.97
2022-10-01T10:30:18.052Z,100264.72
2022-10-01T10:33:22.777Z,100270.59
2022-10-01T10:36:30.351Z,100271.41
2022-10-01T10:39:36.849Z,100267.19
2022-10-01T10:42:48.033Z,100263.16
2022-10-01T10:45:56.382Z,100256.25
2022-10-01T10:49:24.319Z,100251.44
2022-10-01T10:52:30.097Z,100253.97
2022-10-01T10:55:33.141Z,100251.88
2022-10-01T10:58:42.439Z,100269.19
2022-10-01T11:01:47.594Z,100270.28
2022-10-01T11:04:51.143Z,100303.06
2022-10-01T11:07:57.147Z,100296.38
2022-10-01T11:11:21.485Z,100303.22
2022-10-01T11:14:27.452Z,100280.53
2022-10-01T11:17:37.137Z,100261.84
2022-10-01T11:20:55.416Z,100244.41
2022-10-01T11:24:33.144Z,100250.72
2022-10-01T11:28:03.627Z,100230.72
2022-10-01T11:32:05.877Z,100211.25
2022-10-01T11:35:26.858Z,100217.06
2022-10-01T11:38:51.011Z,100200.56
2022-10-01T11:42:00.008Z,100195.84
2022-10-01T11:45:16.827Z,100181.62
2022-10-01T11:48:29.834Z,100167.41
2022-10-01T11:51:42.083Z,100143.22
2022-10-01T11:55:20.767Z,100158.03
2022-10-01T11:58:50.947Z,100151.03
2022-10-01T12:02:05.588Z,100136.00
2022-10-01T12:05:17.276Z,100134.78
2022-10-01T12:08:29.609Z,100148.38
2022-10-01T12:11:42.805Z,100150.41
2022-10-01T12:14:53.009Z,100136.25
2022-10-01T12:18:01.519Z,100142.75
2022-10-01T12:21:11.447Z,100131.13
2022-10-01T12:24:18.794Z,100139.50
2022-10-01T12:27:40.137Z,100152.06
2022-10-01T12:30:53.912Z,100154.56
2022-10-01T12:34:25.484Z,100170.94
2022-10-01T12:37:49.268Z,100180.19
2022-10-01T12:40:54.601Z,100212.19
2022-10-01T12:44:08.193Z,100228.09
2022-10-01T12:47:44.306Z,100238.53
2022-10-01T12:51:24.074Z,100243.91
2022-10-01T12:54:31.025Z,100251.19
2022-10-01T12:57:59.644Z,100247.94
2022-10-01T13:01:24.098Z,100238.34
2022-10-01T13:04:42.024Z,100233.34
2022-10-01T13:07:56.625Z,100214.53
2022-10-01T13:11:11.488Z,100204.31
2022-10-01T13:14:18.136Z,100196.56
2022-10-01T13:17:34.824Z,100171.31
2022-10-01T13:20:54.224Z,100155.47
2022-10-01T13:24:05.262Z,100147.97
2022-10-01T13:27:17.929Z,100156.69
2022-10-01T13:30:26.940Z,100164.25
2022-10-01T13:33:36.028Z,100147.66
2022-10-01T13:36:39.978Z,100142.91
2022-10-01T13:39:43.888Z,100115.75
2022-10-01T13:42:48.235Z,100092.28
2022-10-01T13:45:55.363Z,100080.38
2022-10-01T13:49:28.651Z,100058.59
2022-10-01T13:52:32.689Z,100048.31
2022-10-01T13:55:42.578Z,100056.63
2022-10-01T13:58:46.600Z,100051.88
2022-10-01T14:01:49.500Z,100049.09
2022-10-01T14:04:52.639Z,100045.94
2022-10-01T14:08:27.303Z,100068.59
2022-10-01T14:11:53.025Z,100072.56
2022-10-01T14:15:16.863Z,100066.19
2022-10-01T14:18:23.533Z,100054.34
2022-10-01T14:21:35.267Z,100046.47
2022-10-01T14:24:48.805Z,100041.69
2022-10-01T14:28:00.433Z,100050.78
2022-10-01T14:31:23.579Z,100050.44
2022-10-01T14:34:31.932Z,100058.00
2022-10-01T14:37:39.389Z,100044.63
2022-10-01T14:40:43.599Z,100038.75
2022-10-01T14:43:46.741Z,100029.34
2022-10-01T14:46:51.375Z,100023.03
2022-10-01T14:49:54.913Z,100029.00
2022-10-01T14:52:58.935Z,100020.78
2022-10-01T14:56:09.438Z,100012.19
2022-10-01T14:59:22.024Z,100006.56
2022-10-01T15:02:27.038Z,99983.63
2022-10-01T15:05:33.388Z,99994.00
2022-10-01T15:08:40.959Z,99982.12
2022-10-01T15:11:47.304Z,99969.44
2022-10-01T15:14:54.266Z,99961.50
2022-10-01T15:17:56.913Z,99961.44
2022-10-01T15:21:06.999Z,99964.94
2022-10-01T15:24:27.956Z,99966.84
2022-10-01T15:27:31.407Z,99962.47
2022-10-01T15:30:36.249Z,99971.53
2022-10-01T15:33:41.053Z,99961.41
2022-10-01T15:36:44.625Z,99956.22
2022-10-01T15:39:51.757Z,99948.03
2022-10-01T15:43:21.842Z,99961.50
2022-10-01T15:46:29.194Z,99980.16
2022-10-01T15:49:31.942Z,99965.63
2022-10-01T15:52:59.915Z,99964.97
2022-10-01T15:56:10.767Z,99976.88
2022-10-01T15:59:19.587Z,99971.03
2022-10-01T16:02:29.870Z,99970.72
2022-10-01T16:05:44.954Z,99975.94
2022-10-01T16:09:06.354Z,99989.88
2022-10-01T16:12:09.122Z,100000.19
2022-10-01T16:15:31.064Z,99991.59
2022-10-01T16:18:35.719Z,99990.44
2022-10-01T16:21:40.664Z,99998.00
2022-10-01T16:24:46.033Z,99991.72
2022-10-01T16:27:53.229Z,99989.78
2022-10-01T16:30:56.402Z,100008.06
2022-10-01T16:33:59.015Z,100000.59
2022-10-01T16:37:02.462Z,99991.91
2022-10-01T16:40:05.396Z,99991.19
2022-10-01T16:43:24.316Z,99986.47
2022-10-01T16:46:26.904Z,99988.09
2022-10-01T16:49:29.798Z,99973.13
2022-10-01T16:52:32.348Z,99985.37
2022-10-01T16:55:37.993Z,99986.19
2022-10-01T16:58:43.087Z,99987.84
2022-10-01T17:01:46.007Z,99987.56
2022-10-01T17:04:48.700Z,100000.91
2022-10-01T17:07:57.700Z,99995.84
2022-10-01T17:11:02.079Z,99990.34
2022-10-01T17:14:09.554Z,99997.84
2022-10-01T17:17:12.041Z,99999.06
2022-10-01T17:20:15.503Z,99999.06
2022-10-01T17:23:20.023Z,99997.12
2022-10-01T17:26:22.929Z,99993.97
2022-10-01T17:29:25.567Z,99997.59
2022-10-01T17:32:28.445Z,100004.69
2022-10-01T17:35:31.103Z,100003.91
2022-10-01T17:38:34.552Z,100022.91
2022-10-01T17:41:37.112Z,100014.97
2022-10-01T17:44:40.016Z,100016.19
2022-10-01T17:47:47.064Z,100027.25
2022-10-01T17:50:58.748Z,100029.22
2022-10-01T17:54:03.268Z,100024.88
2022-10-01T17:57:06.210Z,100032.75
2022-10-01T18:00:09.479Z,100020.97
2022-10-01T18:03:14.374Z,100014.28
2022-10-01T18:06:17.330Z,100026.44
2022-10-01T18:09:20.559Z,100024.84
2022-10-01T18:12:23.407Z,100025.62
2022-10-01T18:15:25.965Z,100027.19
2022-10-01T18:21:51.715Z,100021.28
2022-10-01T18:24:54.764Z,99999.69
2022-10-01T18:27:57.319Z,100013.37
2022-10-01T18:31:23.448Z,100009.06
2022-10-01T18:34:32.847Z,100025.19
2022-10-01T18:37:40.020Z,100021.62
2022-10-01T18:40:43.858Z,100026.00
2022-10-01T18:43:47.225Z,100026.00
2022-10-01T18:46:49.853Z,100040.56
2022-10-01T18:50:07.886Z,100027.16
2022-10-01T18:53:18.319Z,100036.63
2022-10-01T18:56:34.678Z,100033.47
2022-10-01T18:59:43.328Z,100026.00
2022-10-01T19:02:55.034Z,100030.31
2022-10-01T19:06:21.458Z,100025.56
2022-10-01T19:09:41.880Z,100016.13
2022-10-01T19:13:13.786Z,100024.41
2022-10-01T19:16:39.803Z,100050.47
2022-10-01T19:19:55.028Z,100056.38
2022-10-01T19:23:06.934Z,100063.44
2022-10-01T19:26:22.785Z,100072.13
2022-10-01T19:29:31.494Z,100064.56
2022-10-01T19:33:03.184Z,100077.94
2022-10-01T19:36:16.445Z,100089.34
2022-10-01T19:39:26.349Z,100090.91
2022-10-01T19:42:38.810Z,100094.84
2022-10-01T19:45:52.419Z,100088.59
2022-10-01T19:49:15.928Z,100087.25
2022-10-01T19:52:21.260Z,100093.19
2022-10-01T19:55:25.334Z,100091.16
2022-10-01T19:58:30.545Z,100086.44
2022-10-01T20:01:49.179Z,100091.53
2022-10-01T20:05:05.288Z,100103.75
2022-10-01T20:08:28.942Z,100117.12
2022-10-01T20:11:48.995Z,100118.31
2022-10-01T20:15:08.999Z,100127.81
2022-10-01T20:18:33.533Z,100141.25
2022-10-01T20:32:50.844Z,100170.47
2022-10-01T20:36:34.973Z,100190.28
2022-10-01T20:39:49.607Z,100205.72
2022-10-01T20:43:11.622Z,100233.78
2022-10-01T20:46:26.600Z,100241.34
2022-10-01T20:50:14.579Z,100225.72
2022-10-01T20:53:54.390Z,100225.00
2022-10-01T20:57:12.444Z,100242.03
2022-10-01T21:00:21.351Z,100237.34
2022-10-01T21:03:31.798Z,100237.41
2022-10-01T21:06:42.504Z,100233.87
2022-10-01T21:09:49.999Z,100250.81
2022-10-01T21:13:13.652Z,100246.91
2022-10-01T21:16:50.135Z,100247.66
2022-10-01T21:20:04.788Z,100260.69
2022-10-01T21:23:16.621Z,100255.56
2022-10-01T21:27:01.364Z,100261.06
2022-10-01T21:30:12.245Z,100247.28
2022-10-01T21:33:21.051Z,100250.81
2022-10-01T21:36:36.867Z,100259.88
2022-10-01T21:39:50.752Z,100263.03
2022-10-01T21:43:19.472Z,100264.59
2022-10-01T21:46:37.929Z,100261.47
2022-10-01T21:50:11.113Z,100259.12
2022-10-01T21:53:35.383Z,100250.84
2022-10-01T21:56:45.631Z,100264.22
2022-10-01T21:59:48.174Z,100258.72
2022-10-01T22:03:12.170Z,100256.34
2022-10-01T22:06:26.608Z,100257.13
2022-10-01T22:10:00.431Z,100248.50
2022-10-01T22:13:09.521Z,100248.47
2022-10-01T22:16:15.183Z,100268.13
2022-10-01T22:19:37.264Z,100272.06
2022-10-01T22:22:39.904Z,100279.56
2022-10-01T22:25:57.155Z,100272.06
2022-10-01T22:29:02.792Z,100269.31
2022-10-01T22:32:09.207Z,100280.75
2022-10-01T22:35:23.277Z,100272.84
2022-10-01T22:38:48.497Z,100278.75
2022-10-01T22:42:33.488Z,100281.50
2022-10-01T22:46:04.559Z,100268.13
2022-10-01T22:49:13.234Z,100278.75
2022-10-01T22:52:44.289Z,100292.09
2022-10-01T22:55:54.441Z,100296.03
2022-10-01T22:59:49.148Z,100300.38
2022-10-01T23:03:26.102Z,100310.19
2022-10-01T23:06:37.049Z,100301.16
2022-10-01T23:10:24.162Z,100305.44
2022-10-01T23:13:45.342Z,100287.75
2022-10-01T23:16:55.055Z,100304.66
2022-10-01T23:20:14.887Z,100304.66
2022-10-01T23:23:26.415Z,100312.91
2022-10-01T23:26:47.640Z,100313.28
2022-10-01T23:30:07.539Z,100315.25
2022-10-01T23:33:27.952Z,100325.41
2022-10-01T23:36:39.396Z,100337.59
2022-10-01T23:39:48.959Z,100343.88
2022-10-01T23:43:11.673Z,100348.56
2022-10-01T23:46:20.857Z,100352.03
2022-10-01T23:49:26.570Z,100346.59
2022-10-01T23:52:41.199Z,100354.78
2022-10-01T23:56:11.811Z,100367.31
2022-10-01T23:59:32.604Z,100372.03
